Aviation Digital Data Service (ADDS)

Output produced by METARs form (1726 UTC 25 October 2014)
found at http://aviationweather.gov/adds/metars/
 
KATL 251549Z 2516/2618 33008KT P6SM SKC 
     FM260200 31004KT P6SM FEW025 
     FM261200 33008KT P6SM FEW250